Andover, SD

4:23 AM CDT on October 25, 2014 (GMT -0500)
KSDGROTO1 | Change Station
CLOSE
Current Station
Personal Weather Station
Location: Groton, SD
Elevation: 1295 ft
Nearby Weather Stations

Elev 1295 ft 45.45 °N, 98.10 °W | Updated 9 minutes ago

Partly Cloudy
Partly Cloudy
51.4 °F
Feels Like 51.4 °F
N
2.0
Wind Variable Wind from WNW
Gusts 3.0 mph

Today
High -- | Low -- °F
--% Chance of Precip.
Yesterday
High -- | Low -- °F
Precip. -- in
8:01 AM 6:29 PM
New Moon, 2% visible
Pressure 30.07 in
Visibility 10.0 miles
Clouds Clear
Dew Point 38 °F
Humidity 61%
Rainfall 0.00 in
Snow Depth Not available.
UV 0 out of 12
Pollen 1.40 out of 12
Air Quality Not available.
Flu Activity Sporadic
METAR KABR 250853Z AUTO 32009KT 10SM CLR 12/01 A3008 RMK AO2 SLP182 T01220011 52011

More Conditions Fewer Conditions

Pressure 30.07 in
Visibility 10.0 miles
Clouds Clear
Dew Point 38 °F
Humidity 61%
Rainfall 0.00 in
Snow Depth Not available.
UV 0 out of 12
Pollen 1.40 out of 12
Air Quality Not available.
Flu Activity Sporadic
METAR KABR 250853Z AUTO 32009KT 10SM CLR 12/01 A3008 RMK AO2 SLP182 T01220011 52011

More Conditions Fewer Conditions

10-Day Weather Forecast

Almanac

Astronomy

Oct. 25, 2014 Rise Set
Actual Time 8:01 AM CDT 6:29 PM CDT
Civil Twilight 7:30 AM CDT 6:59 PM CDT
Nautical Twilight 6:56 AM CDT 7:34 PM CDT
Astronomical Twilight 6:22 AM CDT 8:08 PM CDT
Moon 9:45 AM CDT 7:49 PM CDT
Length of Visible Light 11h 28m
Length of Day
10h 28m
Tomorrow will be 2m 58s shorter.
New Moon, 2% of the Moon is Illuminated
Today
New Moon
Oct 30
First Quarter
Nov 6
Full
Nov 14
Last Quarter
Nov 22
New

Today's Extremes

State Highs State Lows

Community

WunderPhotos

Upload Photos

1,764,796 photos uploaded!

Nearby

Snow Depth

Station Depth Elevation
Blind Park 0 in 6890 ft

Earthquake Activity

City Distance Mag. Time & Date
No recent earthquake activity has been reported nearby.
Minimum magnitude displayed is 2.5.

Coastal Water Temperatures

Place Temperature
No Stations Reporting

Nearby Weather Stations